createdAt,value
2022-10-18T00:00:54.690Z,17.40
2022-10-18T00:01:54.671Z,17.31
2022-10-18T00:02:54.641Z,17.37
2022-10-18T00:03:54.632Z,17.38
2022-10-18T00:04:54.620Z,17.26
2022-10-18T00:05:54.631Z,17.36
2022-10-18T00:06:54.599Z,17.23
2022-10-18T00:07:54.583Z,17.38
2022-10-18T00:08:54.574Z,17.23
2022-10-18T00:09:54.561Z,17.23
2022-10-18T00:10:54.576Z,17.33
2022-10-18T00:11:54.540Z,17.26
2022-10-18T00:12:54.538Z,17.30
2022-10-18T00:13:54.537Z,17.22
2022-10-18T00:14:54.507Z,17.25
2022-10-18T00:15:54.497Z,17.21
2022-10-18T00:16:54.543Z,17.15
2022-10-18T00:17:54.472Z,17.15
2022-10-18T00:18:54.482Z,17.15
2022-10-18T00:19:54.449Z,17.15
2022-10-18T00:20:54.440Z,17.16
2022-10-18T00:21:54.438Z,17.15
2022-10-18T00:22:54.439Z,17.11
2022-10-18T00:23:54.405Z,17.07
2022-10-18T00:24:54.395Z,17.08
2022-10-18T00:25:54.382Z,17.11
2022-10-18T00:26:54.372Z,17.03
2022-10-18T00:27:54.390Z,17.08
2022-10-18T00:28:54.412Z,17.04
2022-10-18T00:29:54.360Z,17.00
2022-10-18T00:30:54.331Z,17.00
2022-10-18T00:31:54.316Z,17.03
2022-10-18T00:32:54.308Z,17.14
2022-10-18T00:33:54.307Z,17.07
2022-10-18T00:34:54.310Z,17.04
2022-10-18T00:35:54.273Z,17.00
2022-10-18T00:36:54.265Z,17.04
2022-10-18T00:37:54.270Z,16.97
2022-10-18T00:38:54.241Z,17.00
2022-10-18T00:39:54.230Z,17.06
2022-10-18T00:40:54.244Z,16.97
2022-10-18T00:41:54.210Z,17.00
2022-10-18T00:42:54.195Z,16.98
2022-10-18T00:43:54.186Z,17.04
2022-10-18T00:44:54.195Z,17.03
2022-10-18T00:45:54.199Z,17.04
2022-10-18T00:46:54.152Z,17.01
2022-10-18T00:47:54.137Z,17.07
2022-10-18T00:49:54.117Z,17.01
2022-10-18T00:50:54.425Z,16.94
2022-10-18T00:51:54.096Z,16.97
2022-10-18T00:52:54.086Z,16.98
2022-10-18T00:53:54.073Z,16.93
2022-10-18T00:54:54.083Z,16.94
2022-10-18T00:55:54.050Z,16.97
2022-10-18T00:56:54.041Z,17.01
2022-10-18T00:58:54.021Z,16.93
2022-10-18T00:59:54.028Z,16.97
2022-10-18T01:00:53.999Z,16.96
2022-10-18T01:01:54.032Z,17.03
2022-10-18T01:02:54.016Z,16.96
2022-10-18T01:03:54.011Z,17.00
2022-10-18T01:04:53.954Z,16.89
2022-10-18T01:05:53.937Z,16.96
2022-10-18T01:06:54.029Z,17.01
2022-10-18T01:07:53.937Z,17.01
2022-10-18T01:08:53.906Z,17.00
2022-10-18T01:09:53.917Z,16.96
2022-10-18T01:10:53.888Z,17.00
2022-10-18T01:11:53.907Z,16.93
2022-10-18T01:12:53.867Z,16.88
2022-10-18T01:13:53.849Z,16.91
2022-10-18T01:14:53.862Z,16.97
2022-10-18T01:15:53.902Z,16.97
2022-10-18T01:16:53.819Z,16.93
2022-10-18T01:17:53.822Z,16.86
2022-10-18T01:18:53.820Z,16.94
2022-10-18T01:19:53.786Z,16.91
2022-10-18T01:20:53.783Z,16.88
2022-10-18T01:21:53.773Z,16.89
2022-10-18T01:22:53.754Z,16.86
2022-10-18T01:23:53.767Z,16.86
2022-10-18T01:24:53.830Z,16.75
2022-10-18T01:25:53.717Z,16.73
2022-10-18T01:26:53.711Z,16.70
2022-10-18T01:27:53.694Z,16.71
2022-10-18T01:28:53.800Z,16.63
2022-10-18T01:29:53.680Z,16.64
2022-10-18T01:30:53.662Z,16.56
2022-10-18T01:31:56.387Z,16.64
2022-10-18T01:32:54.641Z,16.60
2022-10-18T01:33:53.724Z,16.60
2022-10-18T01:34:53.618Z,16.57
2022-10-18T01:35:53.613Z,16.57
2022-10-18T01:36:53.616Z,16.60
2022-10-18T01:37:53.587Z,16.60
2022-10-18T01:38:53.578Z,16.60
2022-10-18T01:39:53.563Z,16.53
2022-10-18T01:40:53.574Z,16.60
2022-10-18T01:41:53.539Z,16.60
2022-10-18T01:42:53.565Z,16.56
2022-10-18T01:43:53.520Z,16.68
2022-10-18T01:44:53.528Z,16.64
2022-10-18T01:45:53.519Z,16.64
2022-10-18T01:46:53.490Z,16.60
2022-10-18T01:47:53.474Z,16.49
2022-10-18T01:48:53.469Z,16.49
2022-10-18T01:49:53.470Z,16.39
2022-10-18T01:50:53.482Z,16.41
2022-10-18T01:51:53.486Z,16.39
2022-10-18T01:52:53.463Z,16.31
2022-10-18T01:53:53.408Z,16.34
2022-10-18T01:54:53.400Z,16.35
2022-10-18T01:55:53.412Z,16.25
2022-10-18T01:56:53.374Z,16.24
2022-10-18T01:57:53.370Z,16.21
2022-10-18T01:58:53.357Z,16.15
2022-10-18T01:59:53.344Z,16.08
2022-10-18T02:00:53.374Z,16.00
2022-10-18T02:01:53.343Z,15.96
2022-10-18T02:02:53.312Z,15.96
2022-10-18T02:03:53.298Z,15.92
2022-10-18T02:04:53.288Z,15.90
2022-10-18T02:05:53.293Z,15.84
2022-10-18T02:06:53.291Z,15.84
2022-10-18T02:08:05.367Z,15.87
2022-10-18T02:08:54.241Z,15.89
2022-10-18T02:09:53.229Z,15.90
2022-10-18T02:10:53.241Z,15.89
2022-10-18T02:11:53.256Z,15.97
2022-10-18T02:12:53.199Z,15.83
2022-10-18T02:13:53.186Z,15.90
2022-10-18T02:14:53.178Z,15.82
2022-10-18T02:15:53.186Z,15.74
2022-10-18T02:16:53.178Z,15.72
2022-10-18T02:17:53.142Z,15.74
2022-10-18T02:18:53.133Z,15.75
2022-10-18T02:19:53.118Z,15.67
2022-10-18T02:20:53.108Z,15.74
2022-10-18T02:21:53.142Z,15.72
2022-10-18T02:22:53.090Z,15.67
2022-10-18T02:23:53.105Z,15.69
2022-10-18T02:24:53.068Z,15.78
2022-10-18T02:25:53.057Z,15.72
2022-10-18T02:26:53.045Z,15.75
2022-10-18T02:27:53.050Z,15.75
2022-10-18T02:28:53.020Z,15.75
2022-10-18T02:29:53.031Z,15.64
2022-10-18T02:30:52.997Z,15.60
2022-10-18T02:31:52.985Z,15.64
2022-10-18T02:32:52.999Z,15.71
2022-10-18T02:33:52.966Z,15.64
2022-10-18T02:34:52.961Z,15.64
2022-10-18T02:35:52.940Z,15.68
2022-10-18T02:36:52.930Z,15.59
2022-10-18T02:37:52.978Z,15.53
2022-10-18T02:38:52.911Z,15.59
2022-10-18T02:39:52.909Z,15.51
2022-10-18T02:40:52.907Z,15.60
2022-10-18T02:41:52.876Z,15.56
2022-10-18T02:42:52.885Z,15.60
2022-10-18T02:43:52.852Z,15.57
2022-10-18T02:44:52.847Z,15.54
2022-10-18T02:45:52.829Z,15.53
2022-10-18T02:46:52.833Z,15.51
2022-10-18T02:47:52.828Z,15.56
2022-10-18T02:48:52.796Z,15.62
2022-10-18T02:49:52.784Z,15.53
2022-10-18T02:50:52.797Z,15.56
2022-10-18T02:51:52.786Z,15.51
2022-10-18T02:52:52.755Z,15.59
2022-10-18T02:53:52.760Z,15.60
2022-10-18T02:54:52.757Z,15.51
2022-10-18T02:55:52.719Z,15.57
2022-10-18T02:56:52.710Z,15.53
2022-10-18T02:57:52.700Z,15.57
2022-10-18T02:58:52.689Z,15.59
2022-10-18T02:59:52.672Z,15.57
2022-10-18T03:00:52.706Z,15.53
2022-10-18T03:01:52.734Z,15.53
2022-10-18T03:02:52.650Z,15.56
2022-10-18T03:03:52.650Z,15.49
2022-10-18T03:04:52.624Z,15.59
2022-10-18T03:05:52.633Z,15.59
2022-10-18T03:06:52.598Z,15.54
2022-10-18T03:07:52.584Z,15.50
2022-10-18T03:08:52.597Z,15.51
2022-10-18T03:09:52.603Z,15.54
2022-10-18T03:10:52.557Z,15.54
2022-10-18T03:11:52.549Z,15.54
2022-10-18T03:12:52.533Z,15.53
2022-10-18T03:13:52.542Z,15.47
2022-10-18T03:14:52.513Z,15.51
2022-10-18T03:15:52.498Z,15.47
2022-10-18T03:16:52.488Z,15.53
2022-10-18T03:17:52.493Z,15.53
2022-10-18T03:18:52.484Z,15.49
2022-10-18T03:19:52.476Z,15.53
2022-10-18T03:20:52.467Z,15.53
2022-10-18T03:21:52.432Z,15.50
2022-10-18T03:22:52.443Z,15.46
2022-10-18T03:23:52.407Z,15.50
2022-10-18T03:24:52.398Z,15.43
2022-10-18T03:25:52.405Z,15.35
2022-10-18T03:26:52.374Z,15.43
2022-10-18T03:27:52.383Z,15.51
2022-10-18T03:28:52.458Z,15.36
2022-10-18T03:29:52.365Z,15.43
2022-10-18T03:30:52.354Z,15.41
2022-10-18T03:31:52.319Z,15.41
2022-10-18T03:32:52.309Z,15.36
2022-10-18T03:33:52.324Z,15.38
2022-10-18T03:34:52.286Z,15.41
2022-10-18T03:35:52.276Z,15.36
2022-10-18T03:36:52.285Z,15.43
2022-10-18T03:37:52.252Z,15.38
2022-10-18T03:38:52.249Z,15.35
2022-10-18T03:39:52.231Z,15.35
2022-10-18T03:40:52.247Z,15.43
2022-10-18T03:41:52.226Z,15.44
2022-10-18T03:42:52.198Z,15.46
2022-10-18T03:43:52.205Z,15.39
2022-10-18T03:44:52.205Z,15.44
2022-10-18T03:45:52.202Z,15.38
2022-10-18T03:46:52.177Z,15.39
2022-10-18T03:47:52.144Z,15.51
2022-10-18T03:48:52.154Z,15.38
2022-10-18T03:49:54.683Z,15.47
2022-10-18T03:50:53.108Z,15.43
2022-10-18T03:51:52.096Z,15.44
2022-10-18T03:52:52.114Z,15.34
2022-10-18T03:53:52.075Z,15.41
2022-10-18T03:54:52.065Z,15.44
2022-10-18T03:55:52.080Z,15.50
2022-10-18T03:56:52.070Z,15.38
2022-10-18T03:57:52.084Z,15.34
2022-10-18T03:58:52.022Z,15.35
2022-10-18T03:59:52.007Z,15.43
2022-10-18T04:00:52.016Z,15.36
2022-10-18T04:01:52.056Z,15.39
2022-10-18T04:02:54.965Z,15.44
2022-10-18T04:03:51.967Z,15.35
2022-10-18T04:04:51.974Z,15.36
2022-10-18T04:05:51.941Z,15.39
2022-10-18T04:06:51.934Z,15.36
2022-10-18T04:07:51.923Z,15.31
2022-10-18T04:08:51.920Z,15.31
2022-10-18T04:09:51.897Z,15.32
2022-10-18T04:10:51.906Z,15.38
2022-10-18T04:11:51.907Z,15.35
2022-10-18T04:12:51.887Z,15.39
2022-10-18T04:13:51.870Z,15.35
2022-10-18T04:14:51.841Z,15.38
2022-10-18T04:15:51.832Z,15.38
2022-10-18T04:16:51.818Z,15.36
2022-10-18T04:17:51.825Z,15.34
2022-10-18T04:18:51.799Z,15.44
2022-10-18T04:19:51.784Z,15.39
2022-10-18T04:20:51.801Z,15.43
2022-10-18T04:21:51.765Z,15.41
2022-10-18T04:22:51.769Z,15.41
2022-10-18T04:23:51.760Z,15.38
2022-10-18T04:24:51.731Z,15.53
2022-10-18T04:25:51.741Z,15.53
2022-10-18T04:26:51.706Z,15.51
2022-10-18T04:27:51.722Z,15.36
2022-10-18T04:28:51.719Z,15.49
2022-10-18T04:29:51.673Z,15.47
2022-10-18T04:30:51.679Z,15.39
2022-10-18T04:31:51.670Z,15.44
2022-10-18T04:32:51.641Z,15.47
2022-10-18T04:33:51.651Z,15.50
2022-10-18T04:34:51.623Z,15.46
2022-10-18T04:35:51.609Z,15.38
2022-10-18T04:36:51.596Z,15.51
2022-10-18T04:37:51.589Z,15.51
2022-10-18T04:38:51.594Z,15.49
2022-10-18T04:39:53.637Z,15.49
2022-10-18T04:40:51.549Z,15.44
2022-10-18T04:41:51.541Z,15.50
2022-10-18T04:42:51.531Z,15.44
2022-10-18T04:43:51.543Z,15.50
2022-10-18T04:44:51.508Z,15.41
2022-10-18T04:45:51.500Z,15.46
2022-10-18T04:46:51.504Z,15.41
2022-10-18T04:47:51.475Z,15.46
2022-10-18T04:48:51.461Z,15.47
2022-10-18T04:49:51.472Z,15.47
2022-10-18T04:50:51.445Z,15.47
2022-10-18T04:51:51.431Z,15.46
2022-10-18T04:52:51.421Z,15.46
2022-10-18T04:53:51.407Z,15.44
2022-10-18T04:54:51.417Z,15.38
2022-10-18T04:55:51.386Z,15.35
2022-10-18T04:56:51.372Z,15.38
2022-10-18T04:57:51.367Z,15.41
2022-10-18T04:58:51.350Z,15.41
2022-10-18T04:59:51.362Z,15.44
2022-10-18T05:00:51.331Z,15.44
2022-10-18T05:01:51.418Z,15.39
2022-10-18T05:02:51.324Z,15.46
2022-10-18T05:03:51.298Z,15.39
2022-10-18T05:04:51.308Z,15.41
2022-10-18T05:06:01.704Z,15.36
2022-10-18T05:06:52.263Z,15.35
2022-10-18T05:07:51.253Z,15.31
2022-10-18T05:08:51.262Z,15.35
2022-10-18T05:09:51.236Z,15.39
2022-10-18T05:10:51.219Z,15.36
2022-10-18T05:11:51.212Z,15.46
2022-10-18T05:12:51.198Z,15.43
2022-10-18T05:13:51.206Z,15.51
2022-10-18T05:14:51.415Z,15.36
2022-10-18T05:15:51.167Z,15.39
2022-10-18T05:16:51.150Z,15.43
2022-10-18T05:17:51.152Z,15.35
2022-10-18T05:18:51.154Z,15.36
2022-10-18T05:19:51.143Z,15.38
2022-10-18T05:20:51.158Z,15.38
2022-10-18T05:21:51.098Z,15.35
2022-10-18T05:22:51.106Z,15.35
2022-10-18T05:23:51.073Z,15.41
2022-10-18T05:24:51.062Z,15.35
2022-10-18T05:25:51.051Z,15.32
2022-10-18T05:26:51.040Z,15.34
2022-10-18T05:27:51.050Z,15.41
2022-10-18T05:28:51.065Z,15.39
2022-10-18T05:29:51.010Z,15.39
2022-10-18T05:30:51.000Z,15.32
2022-10-18T05:31:50.987Z,15.35
2022-10-18T05:32:51.006Z,15.34
2022-10-18T05:33:50.963Z,15.35
2022-10-18T05:34:50.981Z,15.41
2022-10-18T05:35:50.940Z,15.44
2022-10-18T05:36:50.955Z,15.47
2022-10-18T05:37:50.919Z,15.39
2022-10-18T05:38:50.934Z,15.36
2022-10-18T05:39:50.902Z,15.51
2022-10-18T05:40:50.886Z,15.36
2022-10-18T05:41:50.897Z,15.34
2022-10-18T05:42:50.866Z,15.35
2022-10-18T05:43:50.851Z,15.39
2022-10-18T05:44:50.869Z,15.41
2022-10-18T05:45:50.852Z,15.41
2022-10-18T05:46:50.817Z,15.36
2022-10-18T05:47:50.810Z,15.36
2022-10-18T05:48:50.800Z,15.34
2022-10-18T05:49:50.805Z,15.39
2022-10-18T05:50:50.809Z,15.32
2022-10-18T05:51:50.787Z,15.35
2022-10-18T05:52:50.749Z,15.32
2022-10-18T05:53:50.739Z,15.36
2022-10-18T05:54:50.730Z,15.32
2022-10-18T05:55:50.741Z,15.29
2022-10-18T05:56:50.713Z,15.34
2022-10-18T05:57:50.699Z,15.35
2022-10-18T05:58:50.687Z,15.35
2022-10-18T05:59:50.673Z,15.28
2022-10-18T06:00:50.776Z,15.34
2022-10-18T06:01:50.672Z,15.32
2022-10-18T06:02:50.673Z,15.29
2022-10-18T06:03:50.630Z,15.35
2022-10-18T06:04:50.616Z,15.32
2022-10-18T06:05:50.607Z,15.38
2022-10-18T06:06:50.641Z,15.29
2022-10-18T06:07:50.586Z,15.35
2022-10-18T06:08:50.593Z,15.29
2022-10-18T06:09:50.563Z,15.25
2022-10-18T06:10:50.550Z,15.29
2022-10-18T06:11:50.561Z,15.32
2022-10-18T06:12:50.526Z,15.39
2022-10-18T06:13:50.546Z,15.20
2022-10-18T06:14:50.510Z,15.31
2022-10-18T06:15:50.516Z,15.27
2022-10-18T06:16:50.505Z,15.31
2022-10-18T06:17:50.473Z,15.32
2022-10-18T06:18:50.465Z,15.23
2022-10-18T06:19:50.451Z,15.36
2022-10-18T06:20:50.460Z,15.35
2022-10-18T06:21:50.452Z,15.29
2022-10-18T06:22:50.433Z,15.34
2022-10-18T06:23:50.407Z,15.36
2022-10-18T06:24:55.067Z,15.21
2022-10-18T06:25:51.384Z,15.35
2022-10-18T06:26:50.447Z,15.23
2022-10-18T06:27:50.361Z,15.31
2022-10-18T06:28:50.433Z,15.23
2022-10-18T06:29:50.341Z,15.23
2022-10-18T06:30:50.327Z,15.29
2022-10-18T06:31:50.317Z,15.27
2022-10-18T06:32:50.327Z,15.25
2022-10-18T06:33:50.314Z,15.11
2022-10-18T06:34:50.283Z,15.23
2022-10-18T06:35:50.273Z,15.10
2022-10-18T06:36:52.105Z,15.27
2022-10-18T06:37:50.260Z,15.20
2022-10-18T06:38:50.275Z,15.19
2022-10-18T06:39:50.230Z,15.16
2022-10-18T06:40:50.217Z,15.19
2022-10-18T06:41:50.207Z,15.17
2022-10-18T06:43:00.030Z,15.21
2022-10-18T06:43:51.205Z,15.20
2022-10-18T06:44:50.174Z,15.17
2022-10-18T06:45:50.163Z,15.27
2022-10-18T06:46:50.150Z,15.20
2022-10-18T06:47:50.140Z,15.16
2022-10-18T06:48:50.126Z,15.14
2022-10-18T06:49:50.137Z,15.27
2022-10-18T06:50:50.128Z,15.19
2022-10-18T06:51:50.097Z,15.34
2022-10-18T06:52:50.085Z,15.31
2022-10-18T06:53:59.600Z,15.23
2022-10-18T06:54:51.095Z,15.29
2022-10-18T06:55:50.050Z,15.13
2022-10-18T06:56:50.037Z,15.34
2022-10-18T06:57:50.027Z,15.29
2022-10-18T06:58:50.096Z,15.28
2022-10-18T06:59:50.006Z,15.29
2022-10-18T07:00:50.017Z,15.29
2022-10-18T07:01:50.015Z,15.31
2022-10-18T07:02:49.973Z,15.29
2022-10-18T07:03:49.965Z,15.35
2022-10-18T07:04:49.977Z,15.36
2022-10-18T07:05:49.961Z,15.34
2022-10-18T07:06:49.926Z,15.38
2022-10-18T07:07:52.957Z,15.35
2022-10-18T07:08:50.902Z,15.35
2022-10-18T07:09:49.894Z,15.35
2022-10-18T07:10:49.921Z,15.32
2022-10-18T07:11:49.874Z,15.36
2022-10-18T07:12:51.583Z,15.32
2022-10-18T07:13:49.849Z,15.32
2022-10-18T07:14:49.839Z,15.35
2022-10-18T07:15:49.851Z,15.34
2022-10-18T07:16:49.836Z,15.41
2022-10-18T07:17:49.806Z,15.32
2022-10-18T07:18:49.801Z,15.38
2022-10-18T07:19:49.784Z,15.36
2022-10-18T07:20:49.793Z,15.34
2022-10-18T07:21:49.764Z,15.35
2022-10-18T07:22:49.759Z,15.41
2022-10-18T07:23:49.740Z,15.38
2022-10-18T07:24:49.726Z,15.41
2022-10-18T07:25:49.737Z,15.47
2022-10-18T07:26:49.740Z,15.49
2022-10-18T07:27:49.695Z,15.46
2022-10-18T07:28:49.789Z,15.56
2022-10-18T07:29:49.684Z,15.57
2022-10-18T07:30:49.664Z,15.54
2022-10-18T07:31:49.701Z,15.56
2022-10-18T07:32:49.639Z,15.64
2022-10-18T07:33:49.630Z,15.64
2022-10-18T07:34:49.619Z,15.68
2022-10-18T07:35:49.632Z,15.67
2022-10-18T07:36:49.593Z,15.65
2022-10-18T07:37:49.585Z,15.68
2022-10-18T07:38:49.571Z,15.60
2022-10-18T07:39:49.562Z,15.68
2022-10-18T07:40:49.572Z,15.65
2022-10-18T07:41:49.542Z,15.65
2022-10-18T07:42:49.564Z,15.72
2022-10-18T07:43:49.519Z,15.78
2022-10-18T07:44:49.508Z,15.69
2022-10-18T07:45:49.498Z,15.69
2022-10-18T07:46:49.503Z,15.67
2022-10-18T07:47:49.472Z,15.67
2022-10-18T07:48:49.463Z,15.67
2022-10-18T07:49:49.454Z,15.74
2022-10-18T07:50:49.444Z,15.74
2022-10-18T07:51:49.452Z,15.78
2022-10-18T07:52:49.419Z,15.72
2022-10-18T07:53:49.425Z,15.78
2022-10-18T07:55:49.387Z,15.76
2022-10-18T07:56:49.396Z,15.75
2022-10-18T07:57:49.362Z,15.76
2022-10-18T07:58:49.387Z,15.72
2022-10-18T07:59:49.343Z,15.74
2022-10-18T08:00:49.342Z,15.75
2022-10-18T08:01:49.373Z,15.72
2022-10-18T08:02:49.309Z,15.82
2022-10-18T08:03:49.318Z,15.82
2022-10-18T08:04:49.281Z,15.68
2022-10-18T08:05:49.273Z,15.72
2022-10-18T08:06:49.269Z,15.76
2022-10-18T08:07:49.250Z,15.75
2022-10-18T08:08:49.258Z,15.74
2022-10-18T08:09:49.230Z,15.82
2022-10-18T08:10:49.238Z,15.89
2022-10-18T08:11:49.212Z,15.86
2022-10-18T08:12:49.193Z,15.75
2022-10-18T08:13:49.187Z,15.84
2022-10-18T08:14:49.191Z,15.83
2022-10-18T08:15:49.268Z,15.80
2022-10-18T08:16:49.174Z,15.84
2022-10-18T08:17:49.142Z,15.83
2022-10-18T08:18:49.135Z,15.84
2022-10-18T08:19:58.540Z,15.74
2022-10-18T08:20:50.105Z,15.76
2022-10-18T08:21:49.119Z,15.83
2022-10-18T08:22:49.085Z,15.83
2022-10-18T08:23:49.072Z,15.84
2022-10-18T08:24:49.065Z,15.82
2022-10-18T08:25:49.072Z,15.90
2022-10-18T08:26:49.044Z,15.89
2022-10-18T08:27:49.033Z,15.94
2022-10-18T08:28:58.171Z,16.01
2022-10-18T08:29:50.181Z,16.01
2022-10-18T08:30:49.019Z,16.01
2022-10-18T08:31:48.983Z,16.05
2022-10-18T08:32:48.975Z,16.04
2022-10-18T08:33:48.961Z,16.04
2022-10-18T08:34:48.975Z,16.04
2022-10-18T08:35:48.948Z,16.02
2022-10-18T08:36:48.954Z,16.09
2022-10-18T08:37:48.919Z,16.04
2022-10-18T08:38:48.928Z,16.08
2022-10-18T08:39:48.939Z,16.11
2022-10-18T08:40:48.887Z,16.11
2022-10-18T08:41:49.116Z,16.17
2022-10-18T08:42:48.862Z,16.12
2022-10-18T08:43:48.849Z,16.09
2022-10-18T08:44:48.852Z,16.14
2022-10-18T08:45:48.831Z,16.14
2022-10-18T08:46:48.861Z,16.15
2022-10-18T08:47:48.806Z,16.25
2022-10-18T08:48:48.805Z,16.20
2022-10-18T08:49:48.783Z,16.33
2022-10-18T08:50:48.774Z,16.33
2022-10-18T08:51:48.760Z,16.39
2022-10-18T08:52:48.770Z,16.41
2022-10-18T08:53:48.741Z,16.38
2022-10-18T08:54:48.734Z,16.43
2022-10-18T08:55:48.716Z,16.49
2022-10-18T08:56:48.733Z,16.49
2022-10-18T08:57:48.693Z,16.52
2022-10-18T08:58:48.684Z,16.46
2022-10-18T08:59:48.672Z,16.33
2022-10-18T09:00:48.661Z,16.31
2022-10-18T09:02:48.835Z,16.41
2022-10-18T09:03:48.683Z,16.35
2022-10-18T09:04:48.618Z,16.35
2022-10-18T09:05:48.605Z,16.34
2022-10-18T09:06:48.596Z,16.33
2022-10-18T09:07:48.616Z,16.48
2022-10-18T09:08:48.573Z,16.43
2022-10-18T09:09:48.562Z,16.60
2022-10-18T09:10:48.692Z,16.71
2022-10-18T09:11:48.538Z,16.66
2022-10-18T09:12:48.528Z,16.64
2022-10-18T09:13:48.518Z,16.57
2022-10-18T09:14:48.528Z,16.50
2022-10-18T09:15:48.499Z,16.50
2022-10-18T09:16:48.486Z,16.38
2022-10-18T09:17:48.498Z,16.45
2022-10-18T09:18:48.482Z,16.45
2022-10-18T09:19:48.556Z,16.43
2022-10-18T09:20:48.442Z,16.49
2022-10-18T09:21:48.449Z,16.57
2022-10-18T09:22:48.444Z,16.53
2022-10-18T09:23:48.429Z,16.64
2022-10-18T09:24:48.431Z,16.61
2022-10-18T09:25:48.388Z,16.75
2022-10-18T09:26:48.396Z,16.71
2022-10-18T09:27:48.361Z,16.81
2022-10-18T09:28:48.434Z,16.85
2022-10-18T09:29:48.362Z,16.85
2022-10-18T09:30:48.332Z,16.89
2022-10-18T09:31:48.315Z,16.83
2022-10-18T09:32:48.307Z,16.82
2022-10-18T09:33:48.316Z,16.82
2022-10-18T09:34:48.299Z,16.76
2022-10-18T09:35:48.274Z,16.76
2022-10-18T09:36:48.288Z,16.66
2022-10-18T09:37:48.274Z,16.75
2022-10-18T09:38:48.239Z,16.71
2022-10-18T09:39:48.228Z,16.71
2022-10-18T09:40:48.411Z,16.76
2022-10-18T09:41:48.206Z,16.75
2022-10-18T09:42:48.192Z,16.67
2022-10-18T09:43:48.180Z,16.68
2022-10-18T09:44:48.171Z,16.76
2022-10-18T09:45:48.159Z,16.67
2022-10-18T09:46:48.170Z,16.71
2022-10-18T09:47:48.162Z,16.73
2022-10-18T09:48:48.127Z,16.63
2022-10-18T09:49:48.117Z,16.60
2022-10-18T09:50:48.122Z,16.60
2022-10-18T09:51:48.092Z,16.61
2022-10-18T09:52:48.083Z,16.70
2022-10-18T09:53:48.093Z,16.75
2022-10-18T09:54:48.065Z,16.67
2022-10-18T09:55:48.075Z,16.81
2022-10-18T09:56:48.132Z,16.73
2022-10-18T09:57:48.029Z,16.73
2022-10-18T09:58:48.016Z,16.73
2022-10-18T09:59:48.008Z,16.76
2022-10-18T10:00:47.994Z,16.75
2022-10-18T10:01:48.006Z,16.81
2022-10-18T10:02:48.056Z,16.75
2022-10-18T10:03:47.957Z,16.75
2022-10-18T10:04:48.594Z,16.73
2022-10-18T10:05:47.935Z,16.75
2022-10-18T10:06:47.945Z,16.73
2022-10-18T10:07:47.922Z,16.71
2022-10-18T10:08:47.904Z,16.60
2022-10-18T10:09:47.893Z,16.61
2022-10-18T10:10:47.984Z,16.68
2022-10-18T10:11:47.869Z,16.64
2022-10-18T10:12:47.865Z,16.63
2022-10-18T10:13:47.848Z,16.63
2022-10-18T10:14:47.861Z,16.58
2022-10-18T10:15:47.827Z,16.60
2022-10-18T10:16:47.892Z,16.63
2022-10-18T10:17:47.803Z,16.57
2022-10-18T10:18:47.795Z,16.61
2022-10-18T10:19:47.808Z,16.60
2022-10-18T10:20:47.772Z,16.60
2022-10-18T10:21:47.764Z,16.61
2022-10-18T10:22:47.767Z,16.64
2022-10-18T10:23:47.736Z,16.60
2022-10-18T10:24:47.726Z,16.56
2022-10-18T10:25:47.733Z,16.64
2022-10-18T10:26:47.707Z,16.63
2022-10-18T10:27:47.690Z,16.70
2022-10-18T10:28:47.730Z,16.75
2022-10-18T10:29:47.785Z,16.86
2022-10-18T10:30:47.663Z,16.94
2022-10-18T10:31:47.648Z,16.93
2022-10-18T10:32:47.653Z,16.86
2022-10-18T10:33:47.627Z,16.97
2022-10-18T10:34:47.637Z,16.97
2022-10-18T10:35:54.766Z,17.08
2022-10-18T10:36:48.593Z,17.08
2022-10-18T10:37:47.579Z,17.14
2022-10-18T10:38:47.678Z,17.19
2022-10-18T10:40:00.652Z,17.21
2022-10-18T10:40:48.546Z,17.28
2022-10-18T10:41:47.555Z,17.25
2022-10-18T10:42:47.527Z,17.34
2022-10-18T10:43:47.511Z,17.40
2022-10-18T10:44:47.505Z,17.36
2022-10-18T10:45:47.650Z,17.37
2022-10-18T10:46:47.484Z,17.37
2022-10-18T10:47:47.468Z,17.40
2022-10-18T10:48:47.460Z,17.40
2022-10-18T10:49:47.458Z,17.43
2022-10-18T10:50:48.468Z,17.51
2022-10-18T10:51:53.714Z,17.52
2022-10-18T10:52:48.674Z,17.63
2022-10-18T10:53:47.406Z,17.56
2022-10-18T10:54:51.354Z,17.58
2022-10-18T10:55:48.378Z,17.63
2022-10-18T10:56:47.405Z,17.59
2022-10-18T10:57:47.360Z,17.64
2022-10-18T10:58:47.348Z,17.62
2022-10-18T10:59:47.338Z,17.64
2022-10-18T11:00:47.326Z,17.75
2022-10-18T11:01:47.313Z,17.68
2022-10-18T11:02:59.228Z,17.70
2022-10-18T11:03:48.326Z,17.77
2022-10-18T11:04:47.282Z,17.95
2022-10-18T11:05:47.273Z,18.10
2022-10-18T11:06:47.260Z,18.26
2022-10-18T11:07:47.272Z,18.30
2022-10-18T11:08:47.278Z,18.47
2022-10-18T11:09:47.229Z,18.51
2022-10-18T11:10:47.230Z,18.50
2022-10-18T11:11:47.303Z,18.52
2022-10-18T11:12:47.191Z,18.25
2022-10-18T11:13:50.007Z,18.20
2022-10-18T11:14:48.168Z,18.25
2022-10-18T11:15:47.156Z,18.29
2022-10-18T11:16:47.148Z,18.25
2022-10-18T11:17:47.175Z,18.36
2022-10-18T11:18:47.125Z,18.47
2022-10-18T11:19:47.112Z,18.62
2022-10-18T11:20:47.105Z,18.60
2022-10-18T11:21:47.111Z,18.70
2022-10-18T11:22:47.084Z,18.80
2022-10-18T11:23:47.070Z,18.78
2022-10-18T11:24:47.060Z,18.87
2022-10-18T11:25:47.047Z,18.80
2022-10-18T11:26:49.995Z,18.95
2022-10-18T11:27:48.024Z,18.91
2022-10-18T11:28:47.082Z,18.99
2022-10-18T11:29:47.004Z,18.94
2022-10-18T11:30:47.016Z,18.95
2022-10-18T11:31:46.978Z,18.75
2022-10-18T11:32:46.969Z,18.60
2022-10-18T11:34:10.657Z,18.63
2022-10-18T11:34:47.945Z,18.65
2022-10-18T11:35:46.942Z,18.52
2022-10-18T11:36:56.132Z,18.51
2022-10-18T11:37:47.911Z,18.41
2022-10-18T11:38:46.904Z,18.36
2022-10-18T11:39:46.919Z,18.47
2022-10-18T11:40:46.882Z,18.54
2022-10-18T11:41:46.869Z,18.54
2022-10-18T11:42:46.906Z,18.66
2022-10-18T11:44:01.681Z,18.45
2022-10-18T11:44:47.878Z,18.50
2022-10-18T11:45:46.846Z,18.62
2022-10-18T11:46:46.820Z,18.51
2022-10-18T11:47:46.804Z,18.58
2022-10-18T11:48:46.793Z,18.57
2022-10-18T11:49:46.780Z,18.47
2022-10-18T11:50:47.111Z,18.45
2022-10-18T11:52:06.692Z,18.41
2022-10-18T11:52:47.746Z,18.33
2022-10-18T11:53:51.649Z,18.41
2022-10-18T11:54:47.729Z,18.37
2022-10-18T11:55:46.751Z,18.50
2022-10-18T11:56:46.705Z,18.37
2022-10-18T11:57:46.692Z,18.30
2022-10-18T11:58:46.705Z,18.21
2022-10-18T11:59:46.681Z,18.26
2022-10-18T12:00:47.485Z,18.26
2022-10-18T12:01:46.693Z,18.23
2022-10-18T12:02:46.717Z,18.26
2022-10-18T12:03:46.627Z,18.27
2022-10-18T12:04:59.852Z,18.27
2022-10-18T12:05:47.602Z,18.44
2022-10-18T12:06:46.593Z,18.47
2022-10-18T12:07:46.602Z,18.54
2022-10-18T12:08:46.571Z,18.66
2022-10-18T12:09:46.563Z,18.50
2022-10-18T12:11:04.015Z,18.54
2022-10-18T12:11:49.391Z,18.50
2022-10-18T12:12:46.529Z,18.55
2022-10-18T12:13:46.538Z,18.57
2022-10-18T12:14:46.544Z,18.55
2022-10-18T12:15:46.495Z,18.55
2022-10-18T12:16:51.394Z,18.52
2022-10-18T12:17:50.123Z,18.54
2022-10-18T12:18:46.513Z,18.63
2022-10-18T12:19:46.450Z,18.58
2022-10-18T12:20:46.444Z,18.57
2022-10-18T12:21:46.424Z,18.57
2022-10-18T12:22:46.436Z,18.62
2022-10-18T12:23:46.402Z,18.54
2022-10-18T12:24:46.395Z,18.60
2022-10-18T12:25:46.401Z,18.55
2022-10-18T12:26:46.402Z,18.63
2022-10-18T12:27:46.358Z,18.52
2022-10-18T12:28:46.439Z,18.54
2022-10-18T12:29:49.492Z,18.52
2022-10-18T12:30:46.344Z,18.52
2022-10-18T12:31:46.315Z,18.66
2022-10-18T12:33:02.091Z,18.62
2022-10-18T12:33:47.291Z,18.72
2022-10-18T12:34:46.304Z,18.72
2022-10-18T12:35:46.274Z,18.75
2022-10-18T12:36:46.262Z,18.72
2022-10-18T12:37:46.253Z,18.69
2022-10-18T12:38:46.264Z,18.75
2022-10-18T12:40:08.612Z,18.80
2022-10-18T12:40:47.235Z,18.75
2022-10-18T12:41:46.211Z,18.78
2022-10-18T12:42:46.222Z,18.78
2022-10-18T12:43:46.185Z,18.84
2022-10-18T12:44:46.202Z,18.76
2022-10-18T12:45:46.183Z,18.72
2022-10-18T12:46:46.175Z,18.67
2022-10-18T12:47:46.172Z,18.57
2022-10-18T12:48:46.147Z,18.48
2022-10-18T12:49:46.138Z,18.44
2022-10-18T12:50:46.104Z,18.45
2022-10-18T12:51:46.100Z,18.47
2022-10-18T12:52:46.085Z,18.42
2022-10-18T12:53:46.227Z,18.44
2022-10-18T12:54:46.063Z,18.32
2022-10-18T12:55:46.055Z,18.23
2022-10-18T12:56:46.060Z,18.30